Time;durP1;ratioP1;P1;durP2;ratioP2;P2;SDS_P1;SDS_P2;PMS_P1;PMS_P2;Temp;Humidity;BMP_temperature;BMP_pressure;BME280_temperature;BME280_humidity;BME280_pressure;Samples;Min_cycle;Max_cycle;Signal;HPM_P1;HPM_P2
2021/03/09 00:01:59;;;;;;;12.83;7.37;;;-1.00;97.30;;;;;;5018601;28;20209;-82
2021/03/09 00:04:25;;;;;;;12.50;6.93;;;-1.00;97.30;;;;;;5018584;28;20759;-83
2021/03/09 00:06:50;;;;;;;13.43;7.10;;;-0.90;97.30;;;;;;5003241;28;20189;-84
2021/03/09 00:09:16;;;;;;;10.87;7.00;;;-0.90;97.30;;;;;;5002472;28;20220;-83
2021/03/09 00:11:41;;;;;;;13.03;6.93;;;-0.90;97.30;;;;;;5002607;28;20219;-83
2021/03/09 00:14:07;;;;;;;15.53;7.90;;;-0.90;97.30;;;;;;5002152;28;20317;-85
2021/03/09 00:16:33;;;;;;;12.70;6.87;;;-1.00;97.30;;;;;;5002199;28;20317;-84
2021/03/09 00:18:58;;;;;;;12.10;6.87;;;-1.00;97.30;;;;;;5002580;28;20185;-83
2021/03/09 00:21:24;;;;;;;16.27;7.20;;;-0.90;97.30;;;;;;5002767;28;20643;-82
2021/03/09 00:23:49;;;;;;;17.03;7.07;;;-0.90;97.30;;;;;;5002161;28;20220;-83
2021/03/09 00:26:15;;;;;;;16.00;7.40;;;-0.90;97.30;;;;;;5005355;28;20561;-83
2021/03/09 00:28:41;;;;;;;13.67;7.70;;;-0.90;97.30;;;;;;5005502;28;20173;-83
2021/03/09 00:31:06;;;;;;;12.60;6.87;;;-0.90;97.30;;;;;;5005803;28;20177;-89
2021/03/09 00:33:32;;;;;;;13.67;6.70;;;-0.90;97.30;;;;;;5005534;28;20188;-83
2021/03/09 00:35:57;;;;;;;12.17;7.50;;;-0.90;97.30;;;;;;5005829;28;20296;-82
2021/03/09 00:38:23;;;;;;;13.70;7.90;;;-0.90;97.30;;;;;;5007354;28;20181;-83
2021/03/09 00:40:48;;;;;;;11.73;7.50;;;-0.90;97.30;;;;;;5005899;28;20169;-85
2021/03/09 00:43:14;;;;;;;15.67;8.10;;;-0.90;97.30;;;;;;5006212;28;20243;-83
2021/03/09 00:45:43;;;;;;;13.67;7.63;;;-0.90;97.30;;;;;;5023507;28;20204;-82
2021/03/09 00:48:08;;;;;;;12.67;7.70;;;-0.90;97.30;;;;;;5006297;28;20430;-83
2021/03/09 00:50:34;;;;;;;17.43;9.17;;;-0.90;97.30;;;;;;5006435;28;20415;-83
2021/03/09 00:53:00;;;;;;;13.90;7.43;;;-1.00;97.30;;;;;;5006325;28;20203;-82
2021/03/09 00:55:25;;;;;;;20.70;8.83;;;-1.00;97.30;;;;;;5006953;28;20219;-83
2021/03/09 00:57:58;;;;;;;15.40;8.60;;;-1.00;97.30;;;;;;5006383;28;20188;-82
2021/03/09 01:00:26;;;;;;;20.67;8.53;;;-1.00;97.30;;;;;;5005702;28;20191;-83
2021/03/09 01:02:52;;;;;;;12.97;7.40;;;-1.00;97.30;;;;;;5006657;28;20412;-83
2021/03/09 01:05:19;;;;;;;17.53;8.40;;;-1.00;97.30;;;;;;5010515;28;20893;-83
2021/03/09 01:07:45;;;;;;;16.70;8.00;;;-1.00;97.30;;;;;;5021306;28;20435;-82
2021/03/09 01:10:13;;;;;;;22.80;9.50;;;-1.10;97.30;;;;;;5022155;28;20432;-82
2021/03/09 01:12:39;;;;;;;17.33;9.03;;;-1.10;97.30;;;;;;5023296;28;20181;-82
2021/03/09 01:15:06;;;;;;;19.37;8.93;;;-1.10;97.30;;;;;;5022776;28;20490;-82
2021/03/09 01:17:32;;;;;;;20.07;9.40;;;-1.10;97.30;;;;;;5023014;28;20413;-82
2021/03/09 01:19:57;;;;;;;15.93;9.07;;;-1.10;97.30;;;;;;5022906;28;20462;-83
2021/03/09 01:22:23;;;;;;;14.90;8.43;;;-1.10;97.30;;;;;;5022675;28;20527;-82
2021/03/09 01:24:51;;;;;;;18.00;9.73;;;-1.10;97.30;;;;;;5022473;28;20205;-82
2021/03/09 01:27:17;;;;;;;15.93;8.47;;;-1.10;97.30;;;;;;5021041;28;20189;-83
2021/03/09 01:29:42;;;;;;;16.03;8.37;;;-1.10;97.30;;;;;;5022375;28;20470;-82
2021/03/09 01:32:09;;;;;;;17.07;8.10;;;-1.10;97.30;;;;;;5028110;28;20473;-83
2021/03/09 01:34:35;;;;;;;13.80;7.67;;;-1.10;97.30;;;;;;5041780;28;20254;-83
2021/03/09 01:37:01;;;;;;;14.77;8.20;;;-1.20;97.30;;;;;;5042773;28;20459;-84
2021/03/09 01:39:26;;;;;;;21.03;8.40;;;-1.20;97.30;;;;;;5041576;28;20419;-83
2021/03/09 01:41:52;;;;;;;21.20;7.80;;;-1.20;97.30;;;;;;5042556;28;20177;-81
2021/03/09 01:44:17;;;;;;;15.20;8.37;;;-1.20;97.30;;;;;;5041518;28;20192;-85
2021/03/09 01:46:45;;;;;;;21.73;8.70;;;-1.20;97.30;;;;;;5033767;28;20189;-83
2021/03/09 01:49:13;;;;;;;16.80;8.13;;;-1.10;97.30;;;;;;5005286;28;20220;-82
2021/03/09 01:51:39;;;;;;;19.53;8.73;;;-1.20;97.30;;;;;;5021438;28;20417;-82
2021/03/09 01:54:05;;;;;;;21.20;8.30;;;-1.10;97.30;;;;;;5021640;28;20466;-83
2021/03/09 01:56:31;;;;;;;17.80;7.80;;;-1.20;97.30;;;;;;5021910;28;20209;-84
2021/03/09 01:58:58;;;;;;;17.73;8.83;;;-1.20;97.30;;;;;;5021587;28;20427;-84
2021/03/09 02:01:24;;;;;;;24.90;8.43;;;-1.20;97.30;;;;;;5021393;28;20628;-82
2021/03/09 02:03:50;;;;;;;19.57;8.63;;;-1.20;97.30;;;;;;5021332;28;20451;-82
2021/03/09 02:06:16;;;;;;;25.10;8.00;;;-1.20;97.30;;;;;;5021999;28;20288;-83
2021/03/09 02:08:43;;;;;;;14.60;8.47;;;-1.20;97.30;;;;;;5021534;28;20412;-84
2021/03/09 02:11:19;;;;;;;15.10;7.90;;;-1.20;97.30;;;;;;5021888;28;20420;-83
2021/03/09 02:13:56;;;;;;;17.20;8.27;;;-1.20;97.30;;;;;;5021811;28;20450;-82
2021/03/09 02:16:25;;;;;;;18.17;8.37;;;-1.20;97.30;;;;;;5024583;28;20463;-82
2021/03/09 02:19:12;;;;;;;18.53;8.23;;;-1.20;97.30;;;;;;5032169;28;20459;-82
2021/03/09 02:22:23;;;;;;;16.00;8.70;;;-1.20;97.30;;;;;;5030934;28;20439;-84
2021/03/09 02:25:16;;;;;;;17.70;7.67;;;-1.20;97.30;;;;;;5017453;28;20494;-82
2021/03/09 02:28:12;;;;;;;13.30;7.90;;;-1.20;97.30;;;;;;5020491;28;20396;-82
2021/03/09 02:30:42;;;;;;;15.20;8.40;;;-1.20;97.30;;;;;;5019905;28;21041;-84
2021/03/09 02:33:16;;;;;;;18.20;8.03;;;-1.20;97.30;;;;;;5022107;28;20388;-82
2021/03/09 02:36:05;;;;;;;14.30;7.43;;;-1.20;97.30;;;;;;5020954;28;20494;-82
2021/03/09 02:38:41;;;;;;;17.90;8.67;;;-1.20;97.30;;;;;;5022630;28;20495;-83
2021/03/09 02:41:09;;;;;;;18.90;8.80;;;-1.20;97.30;;;;;;5021651;28;20423;-82
2021/03/09 02:43:35;;;;;;;14.90;8.13;;;-1.20;97.30;;;;;;5021714;28;20444;-82
2021/03/09 02:46:03;;;;;;;12.77;7.83;;;-1.20;97.30;;;;;;5021184;28;20531;-85
2021/03/09 02:48:29;;;;;;;14.00;7.67;;;-1.20;97.30;;;;;;4984607;28;20241;-84
2021/03/09 02:50:57;;;;;;;16.20;8.30;;;-1.20;97.30;;;;;;5002295;28;20413;-84
2021/03/09 02:53:28;;;;;;;11.20;7.53;;;-1.20;97.30;;;;;;5003055;28;20754;-82
2021/03/09 02:55:56;;;;;;;12.97;7.27;;;-1.20;97.30;;;;;;5001750;28;20481;-83
2021/03/09 02:58:24;;;;;;;17.30;7.97;;;-1.20;97.30;;;;;;5001578;28;20412;-86
2021/03/09 03:00:52;;;;;;;16.90;7.30;;;-1.20;97.30;;;;;;5002205;28;20417;-85
2021/03/09 03:03:18;;;;;;;15.40;8.87;;;-1.20;97.30;;;;;;5001436;28;20412;-86
2021/03/09 03:05:44;;;;;;;12.20;6.77;;;-1.20;97.30;;;;;;5001640;28;20484;-84
2021/03/09 03:08:12;;;;;;;9.93;7.80;;;-1.20;97.30;;;;;;5001070;28;20448;-82
2021/03/09 03:10:41;;;;;;;15.30;6.93;;;-1.20;97.30;;;;;;5001214;28;20421;-81
2021/03/09 03:13:09;;;;;;;13.90;7.57;;;-1.10;97.30;;;;;;5001547;28;20445;-86
2021/03/09 03:15:37;;;;;;;11.40;6.83;;;-1.10;97.30;;;;;;5002469;28;20465;-82
2021/03/09 03:18:10;;;;;;;14.43;8.23;;;-1.10;97.30;;;;;;5001200;28;20796;-82
2021/03/09 03:20:37;;;;;;;17.47;7.63;;;-1.10;97.30;;;;;;5002056;28;20421;-82
2021/03/09 03:23:03;;;;;;;14.60;7.40;;;-1.10;97.30;;;;;;5002585;28;20421;-82
2021/03/09 03:25:30;;;;;;;15.03;7.37;;;-1.10;97.30;;;;;;5001382;28;20951;-83
2021/03/09 03:27:57;;;;;;;20.93;7.90;;;-1.10;97.30;;;;;;5001881;28;20584;-83
2021/03/09 03:30:23;;;;;;;14.90;7.67;;;-1.10;97.30;;;;;;5002566;28;20505;-82
2021/03/09 03:32:49;;;;;;;16.67;7.00;;;-1.20;97.30;;;;;;5020995;28;20489;-83
2021/03/09 03:35:16;;;;;;;16.17;7.87;;;-1.20;97.30;;;;;;5020625;28;20436;-83
2021/03/09 03:37:42;;;;;;;14.33;7.97;;;-1.20;97.30;;;;;;5021468;28;20421;-82
2021/03/09 03:40:12;;;;;;;12.50;6.80;;;-1.20;97.30;;;;;;5021872;28;20415;-83
2021/03/09 03:42:39;;;;;;;15.10;7.37;;;-1.10;97.30;;;;;;5022369;28;20423;-83
2021/03/09 03:45:06;;;;;;;18.13;8.20;;;-1.10;97.30;;;;;;5020848;28;20827;-83
2021/03/09 03:47:32;;;;;;;18.10;7.80;;;-1.10;97.30;;;;;;5017298;28;20466;-86
2021/03/09 03:49:58;;;;;;;20.07;8.13;;;-1.10;97.30;;;;;;5022412;28;20468;-83
2021/03/09 03:52:52;;;;;;;14.40;8.17;;;-1.10;97.30;;;;;;5021070;28;20463;-83
2021/03/09 03:55:32;;;;;;;16.70;8.10;;;-1.10;97.30;;;;;;5020682;28;20212;-82
2021/03/09 03:58:05;;;;;;;14.57;7.97;;;-1.10;97.30;;;;;;5021025;28;20412;-84
2021/03/09 04:00:32;;;;;;;15.23;8.10;;;-1.10;97.30;;;;;;5022105;28;20411;-82
2021/03/09 04:02:59;;;;;;;14.30;7.40;;;-1.00;97.30;;;;;;5024753;28;20456;-83
2021/03/09 04:05:25;;;;;;;11.63;7.80;;;-1.00;97.30;;;;;;5023695;28;21115;-82
2021/03/09 04:07:53;;;;;;;15.87;8.80;;;-1.00;97.30;;;;;;5025366;28;20906;-84
2021/03/09 04:10:19;;;;;;;13.80;7.57;;;-1.10;97.30;;;;;;5024194;28;20420;-84
2021/03/09 04:12:45;;;;;;;17.97;9.07;;;-1.10;97.30;;;;;;5023872;28;20412;-82
2021/03/09 04:15:11;;;;;;;14.70;9.40;;;-1.00;97.30;;;;;;5023018;28;20467;-83
2021/03/09 04:17:40;;;;;;;14.97;8.63;;;-1.00;97.30;;;;;;5023139;28;20240;-83
2021/03/09 04:20:15;;;;;;;16.00;9.27;;;-1.00;97.30;;;;;;5021635;28;20404;-83
2021/03/09 04:22:41;;;;;;;17.93;9.00;;;-1.00;97.30;;;;;;5023084;28;20419;-83
2021/03/09 04:25:08;;;;;;;16.73;8.20;;;-1.00;97.30;;;;;;5022482;28;20428;-86
2021/03/09 04:27:34;;;;;;;15.60;8.27;;;-0.90;97.30;;;;;;5022126;28;20424;-85
2021/03/09 04:30:00;;;;;;;17.17;8.80;;;-1.00;97.30;;;;;;5024792;28;20491;-83
2021/03/09 04:32:27;;;;;;;16.77;8.30;;;-1.00;97.30;;;;;;5022034;28;20444;-83
2021/03/09 04:34:54;;;;;;;15.80;8.40;;;-1.00;97.30;;;;;;5023288;28;20602;-84
2021/03/09 04:37:21;;;;;;;18.60;8.50;;;-1.00;97.30;;;;;;5023731;28;20451;-81
2021/03/09 04:39:48;;;;;;;15.80;8.63;;;-1.00;97.30;;;;;;5023492;28;20423;-83
2021/03/09 04:42:13;;;;;;;18.23;8.10;;;-1.00;97.30;;;;;;5024379;28;20934;-83
2021/03/09 04:44:40;;;;;;;15.13;8.13;;;-1.00;97.30;;;;;;5024755;28;20466;-82
2021/03/09 04:47:07;;;;;;;16.63;8.93;;;-1.00;97.30;;;;;;5015008;28;20236;-82
2021/03/09 04:49:34;;;;;;;16.70;9.30;;;-1.00;97.30;;;;;;5003997;28;20429;-82
2021/03/09 04:52:00;;;;;;;20.13;8.97;;;-1.00;97.30;;;;;;5003956;28;20449;-83
2021/03/09 04:54:27;;;;;;;12.87;8.80;;;-1.00;97.30;;;;;;5002096;28;21030;-85
2021/03/09 04:56:53;;;;;;;19.33;9.10;;;-1.00;97.30;;;;;;5004926;28;20587;-83
2021/03/09 04:59:18;;;;;;;17.67;8.70;;;-1.00;97.30;;;;;;5003712;28;20477;-85
2021/03/09 05:01:44;;;;;;;16.17;8.43;;;-1.10;97.30;;;;;;5003836;28;20522;-83
2021/03/09 05:04:10;;;;;;;13.43;8.20;;;-1.10;97.30;;;;;;5002922;28;20221;-82
2021/03/09 05:06:36;;;;;;;18.40;9.00;;;-1.10;97.30;;;;;;4968962;28;20237;-84
2021/03/09 05:09:02;;;;;;;19.10;9.43;;;-1.10;97.30;;;;;;4981159;28;20572;-84
2021/03/09 05:11:30;;;;;;;17.70;9.43;;;-1.20;97.30;;;;;;4985109;28;20429;-83
2021/03/09 05:13:57;;;;;;;15.73;8.93;;;-1.20;97.30;;;;;;4987234;28;20428;-83
2021/03/09 05:16:23;;;;;;;14.43;8.00;;;-1.20;97.30;;;;;;4985806;28;20577;-82
2021/03/09 05:18:49;;;;;;;14.00;8.50;;;-1.20;97.30;;;;;;4987017;28;20445;-83
2021/03/09 05:21:14;;;;;;;15.63;7.80;;;-1.20;97.30;;;;;;4987335;28;20178;-83
2021/03/09 05:23:40;;;;;;;14.70;7.63;;;-1.30;97.30;;;;;;5004220;28;20425;-83
2021/03/09 05:26:06;;;;;;;14.73;8.47;;;-1.30;97.30;;;;;;4986854;28;20184;-82
2021/03/09 05:28:32;;;;;;;12.83;8.10;;;-1.30;97.30;;;;;;4987497;28;20637;-82
2021/03/09 05:30:58;;;;;;;14.80;8.73;;;-1.30;97.30;;;;;;4986919;28;20244;-82
2021/03/09 05:33:24;;;;;;;14.63;8.40;;;-1.40;97.30;;;;;;5002346;28;20193;-83
2021/03/09 05:35:49;;;;;;;16.90;7.70;;;-1.40;97.30;;;;;;4985929;28;21278;-83
2021/03/09 05:38:15;;;;;;;12.30;7.80;;;-1.40;97.30;;;;;;4987702;28;20174;-84
2021/03/09 05:40:41;;;;;;;15.60;7.80;;;-1.40;97.30;;;;;;4985603;28;20190;-83
2021/03/09 05:43:06;;;;;;;19.53;9.80;;;-1.40;97.30;;;;;;4986633;28;20178;-85
2021/03/09 05:45:32;;;;;;;18.93;8.80;;;-1.40;97.30;;;;;;4984552;28;20217;-82
2021/03/09 05:47:58;;;;;;;20.60;9.87;;;-1.40;97.30;;;;;;4986518;28;20445;-82
2021/03/09 05:50:24;;;;;;;23.83;8.60;;;-1.50;97.30;;;;;;4979002;28;20667;-83
2021/03/09 05:52:53;;;;;;;18.73;9.80;;;-1.50;97.30;;;;;;4987114;28;20448;-82
2021/03/09 05:55:18;;;;;;;21.20;9.60;;;-1.50;97.30;;;;;;4985571;28;20429;-85
2021/03/09 05:57:44;;;;;;;13.07;8.93;;;-1.50;97.30;;;;;;5010328;28;20881;-84
2021/03/09 06:00:11;;;;;;;16.57;8.87;;;-1.50;97.30;;;;;;4986830;28;20193;-87
2021/03/09 06:02:38;;;;;;;18.80;8.43;;;-1.50;97.30;;;;;;4974649;28;20182;-87
2021/03/09 06:05:05;;;;;;;17.97;8.30;;;-1.50;97.30;;;;;;4976106;28;20851;-83
2021/03/09 06:07:31;;;;;;;13.63;7.60;;;-1.50;97.30;;;;;;4982537;28;20433;-85
2021/03/09 06:09:57;;;;;;;14.30;8.30;;;-1.50;97.30;;;;;;4981073;28;20413;-84
2021/03/09 06:12:24;;;;;;;17.50;8.57;;;-1.50;97.30;;;;;;4982465;28;20177;-84
2021/03/09 06:14:56;;;;;;;15.53;8.00;;;-1.50;97.30;;;;;;4982521;28;20280;-82
2021/03/09 06:17:39;;;;;;;13.20;7.70;;;-1.50;97.30;;;;;;4982221;28;20532;-84
2021/03/09 06:20:07;;;;;;;20.90;8.07;;;-1.50;97.30;;;;;;4982936;28;20428;-83
2021/03/09 06:22:42;;;;;;;15.80;7.60;;;-1.50;97.30;;;;;;4983097;28;20417;-82
2021/03/09 06:25:11;;;;;;;16.57;8.13;;;-1.50;97.30;;;;;;5024454;22;20657;-70
2021/03/09 06:27:37;;;;;;;14.23;7.43;;;-1.50;97.30;;;;;;5026415;28;20399;-70
2021/03/09 06:30:06;;;;;;;14.03;7.97;;;-1.40;97.30;;;;;;5008736;28;20415;-70
2021/03/09 06:32:43;;;;;;;20.53;7.93;;;-1.40;97.30;;;;;;5017187;28;20466;-69
2021/03/09 06:35:38;;;;;;;13.53;7.20;;;-1.30;97.30;;;;;;5005530;28;20411;-69
2021/03/09 06:38:17;;;;;;;19.97;7.93;;;-1.30;97.30;;;;;;5028765;28;20929;-69
2021/03/09 06:40:43;;;;;;;18.73;7.90;;;-1.20;97.30;;;;;;5010109;28;20433;-70
2021/03/09 06:43:19;;;;;;;24.83;9.37;;;-1.20;97.30;;;;;;5032281;28;20473;-70
2021/03/09 06:45:44;;;;;;;21.30;9.20;;;-1.10;97.30;;;;;;5021163;28;20414;-69
2021/03/09 06:48:22;;;;;;;16.47;7.83;;;-1.10;97.30;;;;;;5018050;28;20419;-70
2021/03/09 06:50:48;;;;;;;15.53;7.70;;;-1.00;97.30;;;;;;5021674;28;20437;-70
2021/03/09 06:53:27;;;;;;;18.93;8.37;;;-0.90;97.30;;;;;;5012831;28;20825;-69
2021/03/09 06:55:52;;;;;;;14.57;7.83;;;-0.80;97.30;;;;;;5009008;28;20462;-70
2021/03/09 06:58:29;;;;;;;13.70;7.57;;;-0.80;97.30;;;;;;5029167;28;20412;-69
2021/03/09 07:01:13;;;;;;;18.90;9.40;;;-0.70;97.30;;;;;;5013523;28;20188;-70
2021/03/09 07:03:42;;;;;;;15.30;8.47;;;-0.60;97.30;;;;;;5013775;28;20415;-69
2021/03/09 07:06:09;;;;;;;15.50;7.50;;;-0.50;97.30;;;;;;5013616;28;20417;-73
2021/03/09 07:08:35;;;;;;;15.30;7.37;;;-0.40;97.30;;;;;;5013995;28;20419;-70
2021/03/09 07:11:01;;;;;;;14.23;7.57;;;-0.30;97.30;;;;;;5013721;28;20205;-69
2021/03/09 07:13:28;;;;;;;15.80;7.70;;;-0.20;97.30;;;;;;5031033;28;20173;-70
2021/03/09 07:15:54;;;;;;;14.70;7.50;;;-0.10;97.30;;;;;;5013848;28;20459;-71
2021/03/09 07:18:23;;;;;;;13.93;8.60;;;0.00;97.30;;;;;;5031681;28;20523;-72
2021/03/09 07:20:50;;;;;;;16.77;8.00;;;0.10;97.30;;;;;;5014801;28;20926;-71
2021/03/09 07:23:23;;;;;;;15.90;7.87;;;0.20;97.30;;;;;;5014075;28;20715;-71
2021/03/09 07:25:53;;;;;;;18.63;8.27;;;0.30;97.30;;;;;;5032213;28;20461;-72
2021/03/09 07:28:22;;;;;;;15.03;7.93;;;0.40;97.30;;;;;;5013417;28;20419;-72
2021/03/09 07:30:51;;;;;;;13.83;7.40;;;0.50;97.30;;;;;;5013591;28;20446;-73
2021/03/09 07:33:18;;;;;;;13.33;7.47;;;0.60;97.30;;;;;;5014097;28;20497;-72
2021/03/09 07:35:46;;;;;;;16.03;7.20;;;0.70;97.30;;;;;;5013345;28;20485;-72
2021/03/09 07:38:13;;;;;;;19.00;7.90;;;0.80;97.30;;;;;;5031574;28;20499;-72
2021/03/09 07:40:38;;;;;;;15.17;7.70;;;0.90;97.30;;;;;;5031533;28;20438;-73
2021/03/09 07:43:04;;;;;;;19.00;8.60;;;1.00;97.30;;;;;;5013291;28;20411;-73
2021/03/09 07:45:36;;;;;;;14.63;7.77;;;1.10;97.30;;;;;;5020744;28;20187;-73
2021/03/09 07:48:03;;;;;;;13.50;7.43;;;1.20;97.30;;;;;;5015906;28;20420;-71
2021/03/09 07:50:38;;;;;;;12.33;7.37;;;1.30;97.30;;;;;;5013441;28;21190;-73
2021/03/09 07:53:06;;;;;;;14.10;7.30;;;1.40;97.30;;;;;;5013080;28;20508;-73
2021/03/09 07:55:33;;;;;;;12.03;6.83;;;1.40;97.30;;;;;;5012612;28;20531;-73
2021/03/09 07:58:18;;;;;;;13.80;7.10;;;1.50;97.30;;;;;;5013372;28;20510;-73
2021/03/09 08:00:58;;;;;;;11.33;6.03;;;1.60;97.30;;;;;;5012589;28;20434;-74
2021/03/09 08:03:35;;;;;;;18.83;8.10;;;1.60;97.30;;;;;;5034351;28;20964;-71
2021/03/09 08:06:15;;;;;;;14.60;7.87;;;1.70;97.30;;;;;;5032881;28;20410;-71
2021/03/09 08:08:50;;;;;;;10.83;6.13;;;1.80;97.30;;;;;;5032831;28;20398;-73
2021/03/09 08:11:18;;;;;;;14.87;7.10;;;1.90;97.30;;;;;;5032348;28;20433;-71
2021/03/09 08:13:49;;;;;;;11.77;6.80;;;2.00;97.00;;;;;;5050875;28;20406;-71
2021/03/09 08:16:24;;;;;;;19.73;8.17;;;2.10;96.30;;;;;;5022992;28;20536;-71
2021/03/09 08:18:51;;;;;;;13.73;7.80;;;2.20;96.40;;;;;;5012170;28;20981;-71
2021/03/09 08:21:18;;;;;;;16.33;6.80;;;2.20;95.40;;;;;;5013145;28;20437;-73
2021/03/09 08:23:51;;;;;;;13.57;7.53;;;2.30;95.10;;;;;;5046663;28;20406;-72
2021/03/09 08:26:21;;;;;;;13.00;6.63;;;2.40;95.20;;;;;;5021234;28;20537;-72
2021/03/09 08:28:47;;;;;;;13.27;7.47;;;2.40;94.90;;;;;;5005672;28;20470;-73
2021/03/09 08:31:12;;;;;;;11.77;6.37;;;2.50;94.20;;;;;;5021903;28;20447;-73
2021/03/09 08:33:41;;;;;;;11.50;6.53;;;2.60;93.80;;;;;;5024767;28;20834;-73
2021/03/09 08:36:22;;;;;;;19.73;7.53;;;2.60;93.80;;;;;;5033268;28;20207;-73
2021/03/09 08:39:15;;;;;;;11.13;6.27;;;2.70;93.40;;;;;;5021301;28;20948;-73
2021/03/09 08:41:41;;;;;;;10.90;6.70;;;2.80;92.90;;;;;;5007931;28;20436;-74
2021/03/09 08:44:22;;;;;;;11.73;6.80;;;2.80;92.40;;;;;;5027710;28;20415;-73
2021/03/09 08:47:11;;;;;;;9.70;5.80;;;2.90;91.30;;;;;;5006713;28;20718;-73
2021/03/09 08:49:37;;;;;;;11.90;6.03;;;3.00;91.80;;;;;;5042357;28;20782;-74
2021/03/09 08:52:10;;;;;;;12.90;7.07;;;3.10;89.10;;;;;;5022967;28;20447;-74
2021/03/09 08:54:49;;;;;;;11.63;6.30;;;3.10;88.70;;;;;;5015166;28;20233;-73
2021/03/09 08:57:24;;;;;;;11.13;6.20;;;3.20;89.00;;;;;;5017389;28;20446;-74
2021/03/09 08:59:59;;;;;;;15.80;6.87;;;3.30;89.50;;;;;;5039604;28;20469;-74
2021/03/09 09:02:29;;;;;;;11.10;6.23;;;3.40;88.90;;;;;;5025789;28;20805;-74
2021/03/09 09:05:02;;;;;;;10.50;6.00;;;3.50;87.80;;;;;;5031203;28;20501;-74
2021/03/09 09:07:36;;;;;;;17.20;6.17;;;3.60;88.10;;;;;;5017898;28;20419;-74
2021/03/09 09:10:06;;;;;;;11.00;5.60;;;3.70;88.40;;;;;;5026604;28;20438;-74
2021/03/09 09:12:41;;;;;;;12.10;6.57;;;3.80;87.10;;;;;;5031735;28;21006;-73
2021/03/09 09:15:07;;;;;;;12.50;6.33;;;3.90;87.70;;;;;;5054190;28;20878;-74
2021/03/09 09:17:33;;;;;;;16.70;7.57;;;4.00;87.70;;;;;;5019922;28;20454;-73
2021/03/09 09:20:03;;;;;;;11.63;6.50;;;4.10;87.10;;;;;;5034769;28;20870;-74
2021/03/09 09:22:29;;;;;;;13.33;7.00;;;4.10;87.40;;;;;;5016186;28;20446;-74
2021/03/09 09:25:05;;;;;;;12.73;6.60;;;4.20;86.20;;;;;;5033947;28;20466;-75
2021/03/09 09:27:52;;;;;;;9.20;6.00;;;4.30;85.80;;;;;;5029371;28;20426;-75
2021/03/09 09:30:35;;;;;;;12.47;6.83;;;4.40;84.70;;;;;;5034891;28;20910;-72
2021/03/09 09:33:03;;;;;;;9.50;6.40;;;4.60;86.00;;;;;;5033062;28;20415;-75
2021/03/09 09:35:29;;;;;;;15.20;7.30;;;4.80;85.30;;;;;;5033798;28;20415;-75
2021/03/09 09:38:00;;;;;;;11.77;6.80;;;4.90;84.40;;;;;;5032105;28;20418;-75
2021/03/09 09:40:38;;;;;;;10.93;6.13;;;5.00;84.80;;;;;;5035394;28;20807;-75
2021/03/09 09:43:17;;;;;;;15.57;6.27;;;5.20;85.10;;;;;;5024631;28;20471;-72
2021/03/09 09:45:50;;;;;;;12.67;6.50;;;5.10;83.10;;;;;;5021030;28;20783;-72
2021/03/09 09:48:21;;;;;;;15.53;6.90;;;5.10;83.20;;;;;;5025073;28;20782;-75
2021/03/09 09:50:55;;;;;;;10.87;6.80;;;5.30;83.40;;;;;;5049609;28;20940;-72
2021/03/09 09:53:37;;;;;;;10.03;6.47;;;5.50;82.40;;;;;;5035317;28;20493;-75
2021/03/09 09:56:10;;;;;;;16.50;7.50;;;5.60;81.80;;;;;;5053976;28;20503;-74
2021/03/09 09:58:53;;;;;;;13.37;6.47;;;5.60;81.40;;;;;;5035674;28;20509;-73
2021/03/09 10:01:20;;;;;;;18.27;7.70;;;5.80;82.10;;;;;;5053265;28;20933;-73
2021/03/09 10:03:57;;;;;;;15.63;6.30;;;5.90;81.50;;;;;;5036065;28;20417;-73
2021/03/09 10:06:28;;;;;;;11.23;6.47;;;5.90;79.60;;;;;;5035185;28;20414;-73
2021/03/09 10:08:54;;;;;;;11.00;6.20;;;6.00;79.60;;;;;;5024086;28;20422;-74
2021/03/09 10:11:21;;;;;;;10.87;5.80;;;6.20;79.40;;;;;;5015098;28;20439;-70
2021/03/09 10:13:46;;;;;;;14.00;6.47;;;6.40;78.80;;;;;;5004840;28;20423;-74
2021/03/09 10:16:12;;;;;;;11.73;6.30;;;6.60;77.80;;;;;;5014434;28;20454;-70
2021/03/09 10:18:39;;;;;;;16.27;7.20;;;6.70;77.00;;;;;;5043409;28;20635;-71
2021/03/09 10:21:15;;;;;;;12.63;6.80;;;6.80;77.10;;;;;;5052232;28;20195;-71
2021/03/09 10:23:58;;;;;;;15.60;7.10;;;6.70;76.00;;;;;;5034990;28;20418;-73
2021/03/09 10:26:36;;;;;;;11.43;6.93;;;6.70;76.40;;;;;;5034791;28;20517;-72
2021/03/09 10:29:16;;;;;;;14.70;7.40;;;6.70;76.00;;;;;;5042585;28;20390;-71
2021/03/09 10:31:45;;;;;;;13.53;7.30;;;6.90;76.40;;;;;;5034403;28;20433;-73
2021/03/09 10:34:12;;;;;;;13.20;7.20;;;7.10;76.10;;;;;;5034095;28;20413;-72
2021/03/09 10:36:56;;;;;;;11.20;6.93;;;7.10;74.90;;;;;;5027180;28;20450;-73
2021/03/09 10:39:24;;;;;;;14.70;8.03;;;7.10;75.90;;;;;;5031387;28;20797;-74
2021/03/09 10:41:50;;;;;;;15.53;7.20;;;7.00;75.00;;;;;;5033205;28;20422;-74
2021/03/09 10:44:26;;;;;;;13.33;7.30;;;6.70;73.70;;;;;;5017843;28;20914;-75
2021/03/09 10:46:52;;;;;;;15.40;8.03;;;6.60;74.30;;;;;;5030129;28;20426;-74
2021/03/09 10:49:17;;;;;;;14.40;7.03;;;6.70;74.00;;;;;;5037228;28;20418;-73
2021/03/09 10:51:43;;;;;;;13.67;8.23;;;7.00;76.40;;;;;;5032613;28;20223;-74
2021/03/09 10:54:09;;;;;;;14.97;8.33;;;7.20;73.20;;;;;;5015557;28;20207;-78
2021/03/09 10:56:35;;;;;;;17.87;9.23;;;7.20;71.40;;;;;;5014581;28;20222;-73
2021/03/09 10:59:01;;;;;;;17.87;8.90;;;7.20;71.10;;;;;;5044476;28;20176;-74
2021/03/09 11:01:30;;;;;;;22.33;8.50;;;7.30;71.40;;;;;;5026652;28;20522;-74
2021/03/09 11:03:55;;;;;;;15.30;8.90;;;7.50;73.50;;;;;;5047657;28;20259;-73
2021/03/09 11:06:21;;;;;;;15.73;8.30;;;7.70;72.50;;;;;;5029810;28;20505;-70
2021/03/09 11:08:47;;;;;;;17.50;8.10;;;7.80;71.20;;;;;;5051618;28;20644;-72
2021/03/09 11:11:12;;;;;;;14.97;7.63;;;8.00;73.60;;;;;;5033399;28;20199;-72
2021/03/09 11:13:38;;;;;;;20.13;9.30;;;8.10;73.50;;;;;;5033642;28;20182;-75
2021/03/09 11:16:04;;;;;;;14.43;8.33;;;8.30;74.70;;;;;;5034701;28;20295;-73
2021/03/09 11:18:29;;;;;;;18.10;9.83;;;8.50;73.40;;;;;;5025948;28;20212;-70
2021/03/09 11:20:55;;;;;;;16.20;8.23;;;8.40;73.30;;;;;;5013841;28;20526;-73
2021/03/09 11:23:21;;;;;;;12.77;7.90;;;8.30;73.40;;;;;;5014399;28;20256;-74
2021/03/09 11:25:46;;;;;;;13.10;7.23;;;8.50;75.10;;;;;;5027952;28;20702;-74
2021/03/09 11:28:12;;;;;;;16.07;9.83;;;8.60;73.90;;;;;;5030786;28;20203;-74
2021/03/09 11:30:38;;;;;;;15.40;8.87;;;8.40;71.00;;;;;;5031096;28;20681;-74
2021/03/09 11:33:04;;;;;;;18.83;9.27;;;8.30;70.90;;;;;;5045819;28;20210;-74
2021/03/09 11:35:29;;;;;;;17.40;8.57;;;8.50;72.50;;;;;;5050983;28;20181;-75
2021/03/09 11:37:55;;;;;;;17.30;9.03;;;8.70;71.40;;;;;;5050881;28;20229;-73
2021/03/09 11:40:21;;;;;;;16.37;9.20;;;8.80;70.80;;;;;;5050869;28;20716;-72
2021/03/09 11:42:46;;;;;;;14.30;8.80;;;8.90;70.60;;;;;;5049982;28;20724;-73
2021/03/09 11:45:12;;;;;;;16.90;8.93;;;8.80;69.90;;;;;;5050726;28;20179;-73
2021/03/09 11:47:38;;;;;;;16.63;9.60;;;8.70;70.90;;;;;;5050997;28;20547;-74
2021/03/09 11:50:04;;;;;;;17.70;9.23;;;8.50;70.20;;;;;;5030113;28;20422;-74
2021/03/09 11:52:30;;;;;;;15.83;8.87;;;8.50;71.10;;;;;;5031496;28;20682;-71
2021/03/09 11:54:56;;;;;;;16.60;8.63;;;8.40;70.80;;;;;;5030527;28;20423;-73
2021/03/09 11:57:21;;;;;;;16.67;9.57;;;8.40;70.40;;;;;;5039615;28;20196;-71
2021/03/09 11:59:47;;;;;;;15.67;8.43;;;8.40;71.40;;;;;;5040674;28;20776;-71
2021/03/09 12:02:13;;;;;;;18.70;9.13;;;8.50;71.60;;;;;;5032667;28;20192;-70
2021/03/09 12:04:40;;;;;;;16.73;9.10;;;8.50;70.10;;;;;;5034162;28;20201;-78
2021/03/09 12:07:06;;;;;;;21.60;9.17;;;8.80;71.50;;;;;;5050944;28;20180;-80
2021/03/09 12:09:32;;;;;;;22.43;9.13;;;9.20;71.80;;;;;;5035465;28;20423;-72
2021/03/09 12:11:57;;;;;;;17.67;9.33;;;9.50;70.80;;;;;;5041351;28;20430;-71
2021/03/09 12:14:23;;;;;;;18.87;9.50;;;9.70;70.20;;;;;;5050413;28;20620;-73
2021/03/09 12:16:49;;;;;;;15.27;8.50;;;9.80;69.60;;;;;;5049160;28;20200;-73
2021/03/09 12:19:14;;;;;;;18.77;9.50;;;9.70;68.00;;;;;;5038696;28;20454;-72
2021/03/09 12:21:40;;;;;;;17.57;9.40;;;9.90;68.60;;;;;;5031945;28;20193;-71
2021/03/09 12:24:06;;;;;;;19.50;10.53;;;10.30;69.10;;;;;;5033151;28;20184;-71
2021/03/09 12:26:33;;;;;;;19.60;10.30;;;10.60;69.60;;;;;;5038949;28;20208;-70
2021/03/09 12:28:59;;;;;;;17.37;10.20;;;10.90;68.50;;;;;;5054671;28;20417;-70
2021/03/09 12:31:25;;;;;;;19.27;9.13;;;11.10;67.90;;;;;;5035862;28;20520;-71
2021/03/09 12:33:51;;;;;;;23.30;10.97;;;11.20;67.80;;;;;;5036457;28;20494;-70
2021/03/09 12:36:16;;;;;;;18.17;9.43;;;11.10;67.60;;;;;;5037666;28;20207;-72
2021/03/09 12:38:42;;;;;;;20.70;10.30;;;10.90;66.20;;;;;;5030703;28;20187;-75
2021/03/09 12:41:08;;;;;;;16.90;9.53;;;10.40;65.80;;;;;;5023032;28;20290;-73
2021/03/09 12:43:33;;;;;;;17.70;9.60;;;10.20;67.70;;;;;;5010299;28;20180;-75
2021/03/09 12:45:59;;;;;;;14.27;9.13;;;10.30;68.60;;;;;;5036381;28;20179;-76
2021/03/09 12:48:25;;;;;;;18.63;10.10;;;10.50;67.90;;;;;;5036616;28;20179;-75
2021/03/09 12:50:50;;;;;;;21.80;10.63;;;10.80;67.10;;;;;;5033435;28;20214;-74